2CD8 weather

Children'S Hospital Heliport
Aurora, Colorado, United States

Public forecast

Using degrees Fahrenheit for public forecast. Weather courtesy of forecast.io.

METAR (pilot weather report)

Closest report is Buckley Air Force Base, 4.6 nm (8.5 km) ESE. Retrieved 2019/04/22 02:58 UTC (41 minutes ago):

KBKF 220258Z 00000KT 10SM SCT038 SCT060 BKN120 BKN210 07/07 A3009 RMK AO2A SLP151 T00670066 52036

TAF (pilot weather forecast)

Closest forecast is Buckley Air Force Base, 4.6 nm (8.5 km) ESE. Retrieved 2019/04/22 01:06 UTC (3 hours ago):

TAF KBKF 220104Z 2201/2307 03012KT 9999 SCT040 BKN070 QNH2998INS TEMPO 2201/2203 35025G35KT 510009 BECMG 2204/2205 03012KT 8000 -SHRA BR BKN005 OVC020 QNH3005INS BECMG 2209/2210 03009KT 8000 BR VCSH OVC005 QNH3016INS BECMG 2218/2219 05009KT 9999 -SHRA OVC030 QNH3018INS BECMG 2300/2301 05009KT 9999 NSW BKN030 QNH3014INS BECMG 2304/2305 VRB06KT 9999 BKN050 QNH3021INS TX20/2221Z TN05/2212Z